LFBLLFLC

Guest
Details From LFBL - Limoges Bellegarde
To LFLC - Clermont Ferrand Aulnat
Flight Number -
Tags Generated
Created
Modified
Stats Distance 83 nm / 154 km
Max Altitude 0 ft / 0 m
Waypoints 2
Social Downloads 8
Likes 0
Share VATSIM

Download

Looking for another format? Having issues loading an existing format? Contact us
Advertisement - Login to hide

Notes

Generated

Route

LFBL LFLC

ID Type Via Altitude Latitude Longitude Leg Dist Tot Dist Heading (true) Name
O LFBL APT - 0 ft / 0 m 45.85249˚ 1.17254˚ - 0 nm - -
O LFLC APT - 0 ft / 0 m 45.78482˚ 3.15082˚ 82 nm 82 nm 92° / 94° -

Altitude Profile

Advertisement - Login to hide

LFBL

Details ICAO LFBL (LIG)
Name Limoges Bellegarde
Region France
Timezone Europe/Paris (UTC+1.0)
Stats Elevation 1,300 ft / 396 m (AMSL)
Location 45.861896° 1.181368°
Runways 1
Magnetic Variation 0.422° E

METAR

LFBL 120800Z AUTO VRB02KT 9999 OVC011 02/01 Q1011 BECMG BKN020

Decode

TAF

TAF TAF LFBL 120500Z 1206/1306 VRB02KT 9999 BKN008 TEMPO 1206/1207 4000 -DZ OVC004 PROB30 TEMPO 1206/1207 -RASN VV/// BECMG 1209/1212 BKN020 BECMG 1214/1216 CAVOK

Decode

Departure Runways

ID Width Length Bearing (true) Bearing (mag) Surface Threshold Offset Overrun Length
03 148 ft / 45 m 8,202 ft / 2,500 m 33.16° 32.74° Asphalt 0 ft / 0 m 0 ft / 0 m
21 148 ft / 45 m 8,202 ft / 2,500 m 213.18° 212.76° Asphalt 196 ft / 60 m 0 ft / 0 m

LFLC

Details ICAO LFLC (CFE)
Name Clermont-Ferrand_Auvergne
Region France
Timezone Europe/Paris (UTC+1.0)
Stats Elevation 1,089 ft / 332 m (AMSL)
Location 45.786712° 3.169967°
Runways 1
Magnetic Variation 0.979° E

METAR

LFLC 120800Z AUTO 36002KT 9999 FEW020 BKN035 02/01 Q1012 NOSIG

Decode

TAF

TAF LFLC 120200Z 1203/1303 VRB05KT 9999 BKN030 BKN050 PROB30 TEMPO 1203/1206 4000 -SHRA BKN014 BKN020 BECMG 1209/1212 NSC

Decode

Destination Runways

ID Width Length Bearing (true) Bearing (mag) Surface Threshold Offset Overrun Length
08 148 ft / 45 m 9,878 ft / 3,011 m 81.95° 80.97° Asphalt 0 ft / 0 m 0 ft / 0 m
26 148 ft / 45 m 9,878 ft / 3,011 m 261.98° 261.00° Asphalt 476 ft / 145 m 0 ft / 0 m

Approach Navaids

Runway Type Ident Frequency Range Bearing (true) Bearing (mag) Slope Elevation
26 Localiser CF 111.10 MHz 27 nm / 50 km 261.98° 261.00° - 1,089 ft / 332 m (AMSL)
26 Glidescope CF 111.10 MHz 27 nm / 50 km 261.98° 261.00° 3.00° 1,089 ft / 332 m (AMSL)
26 DME CF 111.10 MHz 27 nm / 50 km - - - 1,089 ft / 332 m (AMSL)

Popular Alternatives